createdAt,value
2018-08-23T00:00:27.787Z,60.80
2018-08-23T00:03:16.813Z,61.60
2018-08-23T00:06:01.747Z,61.80
2018-08-23T00:08:47.298Z,62.20
2018-08-23T00:11:32.912Z,63.00
2018-08-23T00:14:17.186Z,63.70
2018-08-23T00:17:00.867Z,63.90
2018-08-23T00:19:44.527Z,64.50
2018-08-23T00:25:12.378Z,65.40
2018-08-23T00:27:56.043Z,65.50
2018-08-23T00:30:39.660Z,66.10
2018-08-23T00:33:23.276Z,66.30
2018-08-23T00:36:07.135Z,66.40
2018-08-23T00:38:50.774Z,66.60
2018-08-23T00:41:35.337Z,67.20
2018-08-23T00:44:18.973Z,67.60
2018-08-23T00:47:02.609Z,67.70
2018-08-23T00:49:46.255Z,67.80
2018-08-23T00:52:39.942Z,68.10
2018-08-23T00:55:27.113Z,68.60
2018-08-23T00:58:10.764Z,68.70
2018-08-23T01:00:59.754Z,69.20
2018-08-23T01:03:43.869Z,69.20
2018-08-23T01:06:37.786Z,69.60
2018-08-23T01:09:21.869Z,70.00
2018-08-23T01:12:05.654Z,70.50
2018-08-23T01:14:51.334Z,70.50
2018-08-23T01:17:34.931Z,70.80
2018-08-23T01:23:02.214Z,71.00
2018-08-23T01:25:46.896Z,71.40
2018-08-23T01:28:30.521Z,71.40
2018-08-23T01:31:24.909Z,71.40
2018-08-23T01:34:08.577Z,71.40
2018-08-23T01:36:52.217Z,71.90
2018-08-23T01:39:35.870Z,72.30
2018-08-23T01:42:19.763Z,72.50
2018-08-23T01:45:04.440Z,72.90
2018-08-23T01:47:57.225Z,73.30
2018-08-23T01:50:40.869Z,73.30
2018-08-23T01:53:28.932Z,73.50
2018-08-23T01:56:12.625Z,73.70
2018-08-23T01:58:56.324Z,74.20
2018-08-23T02:01:39.982Z,74.30
2018-08-23T02:04:23.617Z,74.50
2018-08-23T02:07:07.321Z,74.70
2018-08-23T02:09:50.949Z,75.00
2018-08-23T02:15:17.952Z,75.30
2018-08-23T02:18:01.590Z,75.40
2018-08-23T02:20:45.165Z,75.60
2018-08-23T02:23:28.850Z,75.80
2018-08-23T02:26:12.879Z,75.80
2018-08-23T02:28:56.479Z,76.20
2018-08-23T02:34:26.152Z,76.20
2018-08-23T02:39:54.848Z,77.10
2018-08-23T02:42:38.443Z,77.00
2018-08-23T02:48:05.481Z,77.50
2018-08-23T02:50:49.713Z,77.80
2018-08-23T02:53:37.161Z,78.40
2018-08-23T02:56:21.819Z,78.80
2018-08-23T02:59:06.399Z,79.10
2018-08-23T03:01:50.623Z,79.40
2018-08-23T03:04:34.241Z,79.90
2018-08-23T03:07:21.525Z,80.10
2018-08-23T03:10:05.135Z,80.60
2018-08-23T03:12:48.817Z,80.90
2018-08-23T03:15:32.442Z,81.00
2018-08-23T03:18:16.066Z,81.70
2018-08-23T03:21:06.690Z,81.60
2018-08-23T03:23:50.292Z,82.10
2018-08-23T03:26:33.992Z,82.10
2018-08-23T03:29:17.601Z,82.40
2018-08-23T03:32:01.282Z,82.60
2018-08-23T03:34:44.883Z,83.00
2018-08-23T03:37:28.498Z,83.40
2018-08-23T03:40:13.172Z,83.80
2018-08-23T03:42:56.841Z,84.20
2018-08-23T03:45:40.508Z,84.80
2018-08-23T03:48:24.169Z,85.10
2018-08-23T03:51:07.751Z,85.30
2018-08-23T03:53:57.671Z,85.60
2018-08-23T03:56:44.724Z,85.70
2018-08-23T03:59:28.428Z,85.90
2018-08-23T04:02:12.777Z,86.30
2018-08-23T04:05:06.745Z,87.00
2018-08-23T04:07:51.318Z,87.40
2018-08-23T04:10:34.965Z,87.60
2018-08-23T04:13:18.613Z,87.90
2018-08-23T04:16:03.058Z,88.10
2018-08-23T04:18:46.725Z,88.20
2018-08-23T04:21:30.333Z,88.40
2018-08-23T04:24:14.037Z,88.60
2018-08-23T04:26:57.699Z,89.00
2018-08-23T04:29:47.322Z,88.60
2018-08-23T04:32:36.443Z,88.60
2018-08-23T04:38:09.059Z,88.90
2018-08-23T04:40:55.502Z,88.90
2018-08-23T04:43:39.211Z,88.90
2018-08-23T04:46:22.893Z,89.00
2018-08-23T04:49:07.708Z,89.20
2018-08-23T04:51:51.466Z,89.00
2018-08-23T04:54:35.023Z,89.10
2018-08-23T04:57:18.673Z,89.10
2018-08-23T05:00:02.411Z,88.80
2018-08-23T05:02:46.035Z,88.50
2018-08-23T05:05:29.634Z,88.40
2018-08-23T05:08:13.248Z,88.70
2018-08-23T05:10:56.903Z,87.70
2018-08-23T05:13:40.599Z,87.30
2018-08-23T05:16:24.214Z,87.10
2018-08-23T05:19:07.898Z,86.70
2018-08-23T05:21:51.494Z,86.40
2018-08-23T05:24:35.203Z,86.00
2018-08-23T05:27:18.791Z,85.70
2018-08-23T05:30:03.454Z,85.60
2018-08-23T05:32:47.063Z,85.70
2018-08-23T05:35:31.281Z,85.70
2018-08-23T05:38:15.377Z,85.70
2018-08-23T05:41:04.545Z,85.90
2018-08-23T05:43:58.392Z,86.30
2018-08-23T05:46:47.371Z,85.30
2018-08-23T05:49:30.966Z,85.30
2018-08-23T05:52:14.589Z,84.90
2018-08-23T05:54:58.240Z,84.60
2018-08-23T06:00:25.197Z,80.50
2018-08-23T06:03:09.506Z,79.00
2018-08-23T06:05:53.433Z,78.50
2018-08-23T06:08:37.689Z,76.10
2018-08-23T06:11:21.542Z,69.60
2018-08-23T06:14:05.191Z,68.40
2018-08-23T06:16:53.071Z,67.20
2018-08-23T06:19:36.673Z,65.50
2018-08-23T06:22:20.341Z,62.70
2018-08-23T06:25:03.910Z,60.50
2018-08-23T06:27:47.533Z,59.20
2018-08-23T06:30:31.176Z,56.90
2018-08-23T06:33:39.117Z,56.20
2018-08-23T06:36:22.613Z,55.00
2018-08-23T06:39:06.893Z,52.40
2018-08-23T06:41:53.386Z,52.90
2018-08-23T06:44:42.552Z,50.20
2018-08-23T06:47:27.281Z,50.80
2018-08-23T06:50:10.922Z,49.40
2018-08-23T06:52:54.590Z,48.40
2018-08-23T06:55:38.213Z,46.40
2018-08-23T06:58:21.866Z,47.10
2018-08-23T07:01:09.757Z,45.70
2018-08-23T07:04:01.587Z,44.50
2018-08-23T07:06:45.279Z,43.50
2018-08-23T07:09:28.800Z,41.80
2018-08-23T07:12:19.070Z,41.50
2018-08-23T07:15:02.735Z,38.10
2018-08-23T07:17:46.460Z,37.80
2018-08-23T07:20:30.008Z,37.20
2018-08-23T07:23:25.693Z,36.50
2018-08-23T07:28:52.647Z,35.60
2018-08-23T07:31:36.348Z,35.90
2018-08-23T07:34:19.962Z,33.70
2018-08-23T07:39:57.718Z,33.00
2018-08-23T07:42:42.541Z,32.30
2018-08-23T07:45:26.200Z,31.70
2018-08-23T07:48:09.835Z,31.10
2018-08-23T07:50:53.474Z,30.40
2018-08-23T07:53:37.073Z,29.80
2018-08-23T07:56:27.958Z,29.40
2018-08-23T07:59:11.738Z,29.00
2018-08-23T08:04:38.802Z,28.50
2018-08-23T08:07:27.153Z,28.00
2018-08-23T08:10:14.976Z,27.20
2018-08-23T08:12:58.614Z,27.70
2018-08-23T08:15:42.192Z,26.70
2018-08-23T08:18:25.857Z,26.40
2018-08-23T08:21:09.534Z,25.90
2018-08-23T08:23:57.289Z,26.20
2018-08-23T08:26:40.871Z,26.70
2018-08-23T08:29:29.908Z,25.30
2018-08-23T08:32:13.506Z,24.80
2018-08-23T08:34:57.638Z,25.30
2018-08-23T08:37:41.306Z,24.20
2018-08-23T08:40:26.118Z,24.70
2018-08-23T08:43:09.785Z,23.80
2018-08-23T08:45:55.321Z,23.70
2018-08-23T08:48:38.946Z,23.60
2018-08-23T08:51:24.424Z,23.90
2018-08-23T08:54:08.097Z,22.90
2018-08-23T08:56:51.869Z,23.10
2018-08-23T08:59:36.221Z,22.00
2018-08-23T09:02:19.952Z,22.70
2018-08-23T09:05:03.493Z,21.70
2018-08-23T09:07:47.122Z,21.60
2018-08-23T09:10:30.739Z,21.40
2018-08-23T09:13:14.372Z,21.50
2018-08-23T09:15:57.984Z,21.10
2018-08-23T09:18:44.020Z,21.20
2018-08-23T09:21:28.026Z,20.70
2018-08-23T09:24:24.563Z,19.60
2018-08-23T09:27:15.433Z,19.30
2018-08-23T09:29:58.994Z,19.90
2018-08-23T09:32:42.627Z,19.30
2018-08-23T09:35:29.751Z,20.10
2018-08-23T09:38:14.733Z,18.50
2018-08-23T09:40:58.396Z,18.80
2018-08-23T09:43:42.003Z,18.80
2018-08-23T09:46:25.677Z,18.70
2018-08-23T09:49:09.255Z,18.70
2018-08-23T09:51:52.862Z,19.10
2018-08-23T09:54:36.486Z,19.10
2018-08-23T09:57:20.126Z,19.40
2018-08-23T10:00:06.018Z,19.20
2018-08-23T10:02:55.144Z,18.80
2018-08-23T10:05:48.969Z,18.60
2018-08-23T10:08:38.138Z,16.30
2018-08-23T10:11:27.387Z,18.30
2018-08-23T10:14:15.957Z,18.40
2018-08-23T10:19:53.974Z,21.00
2018-08-23T10:22:42.996Z,21.10
2018-08-23T10:25:37.795Z,22.40
2018-08-23T10:28:26.632Z,22.30
2018-08-23T10:31:10.270Z,23.90
2018-08-23T10:33:54.373Z,25.00
2018-08-23T10:36:37.973Z,25.20
2018-08-23T10:39:21.588Z,27.10
2018-08-23T10:42:09.532Z,28.20
2018-08-23T10:44:53.337Z,29.70
2018-08-23T10:47:42.498Z,30.40
2018-08-23T10:50:26.171Z,30.40
2018-08-23T10:53:09.873Z,30.30
2018-08-23T10:55:53.539Z,29.60
2018-08-23T10:58:37.193Z,28.50
2018-08-23T11:01:20.834Z,27.20
2018-08-23T11:04:05.345Z,26.30
2018-08-23T11:06:54.433Z,26.40
2018-08-23T11:09:43.496Z,26.50
2018-08-23T11:12:32.586Z,26.40
2018-08-23T11:15:21.550Z,26.60
2018-08-23T11:18:10.597Z,26.50
2018-08-23T11:20:54.210Z,25.90
2018-08-23T11:23:37.858Z,25.50
2018-08-23T11:29:07.099Z,25.90
2018-08-23T11:31:50.965Z,25.70
2018-08-23T11:34:34.623Z,25.80
2018-08-23T11:37:18.181Z,26.50
2018-08-23T11:42:45.154Z,27.80
2018-08-23T11:45:28.729Z,28.10
2018-08-23T11:48:13.195Z,29.00
2018-08-23T11:56:23.389Z,29.20
2018-08-23T11:59:07.068Z,28.80
2018-08-23T12:01:50.797Z,28.80
2018-08-23T12:04:34.458Z,28.60
2018-08-23T12:07:18.084Z,28.90
2018-08-23T12:10:01.707Z,29.00
2018-08-23T12:12:45.891Z,28.90
2018-08-23T12:15:30.912Z,28.50
2018-08-23T12:18:14.496Z,28.90
2018-08-23T12:20:58.172Z,28.90
2018-08-23T12:23:41.782Z,28.00
2018-08-23T12:26:25.426Z,26.40
2018-08-23T12:29:09.873Z,26.80
2018-08-23T12:31:54.914Z,27.40
2018-08-23T12:34:38.543Z,27.20
2018-08-23T12:37:27.764Z,27.80
2018-08-23T12:40:17.054Z,28.20
2018-08-23T12:43:01.199Z,28.60
2018-08-23T12:45:45.119Z,29.00
2018-08-23T12:48:28.840Z,28.70
2018-08-23T12:51:12.557Z,27.20
2018-08-23T12:53:57.172Z,27.30
2018-08-23T12:56:40.819Z,27.90
2018-08-23T12:59:24.473Z,28.30
2018-08-23T13:02:08.164Z,28.30
2018-08-23T13:04:51.830Z,28.50
2018-08-23T13:07:35.426Z,28.50
2018-08-23T13:10:19.128Z,28.00
2018-08-23T13:13:02.778Z,28.00
2018-08-23T13:15:46.404Z,27.70
2018-08-23T13:18:30.083Z,27.70
2018-08-23T13:21:13.798Z,26.80
2018-08-23T13:23:57.417Z,26.60
2018-08-23T13:26:44.994Z,27.10
2018-08-23T13:29:28.985Z,27.50
2018-08-23T13:32:12.611Z,28.00
2018-08-23T13:34:56.627Z,28.10
2018-08-23T13:37:41.329Z,27.90
2018-08-23T13:40:24.919Z,29.70
2018-08-23T13:43:08.519Z,29.60
2018-08-23T13:45:52.142Z,29.70
2018-08-23T13:48:35.857Z,29.70
2018-08-23T13:51:19.458Z,29.80
2018-08-23T13:54:03.215Z,29.30
2018-08-23T13:56:46.793Z,29.30
2018-08-23T13:59:30.455Z,29.50
2018-08-23T14:02:14.170Z,29.70
2018-08-23T14:04:57.729Z,29.90
2018-08-23T14:07:41.512Z,30.00
2018-08-23T14:10:25.132Z,30.50
2018-08-23T14:13:09.706Z,30.80
2018-08-23T14:16:10.013Z,31.60
2018-08-23T14:18:53.624Z,32.60
2018-08-23T14:21:37.894Z,33.20
2018-08-23T14:24:21.505Z,33.50
2018-08-23T14:27:07.017Z,33.90
2018-08-23T14:29:50.644Z,34.40
2018-08-23T14:32:34.294Z,34.40
2018-08-23T14:35:18.131Z,34.90
2018-08-23T14:38:01.789Z,34.60
2018-08-23T14:40:45.450Z,33.70
2018-08-23T14:43:29.114Z,34.60
2018-08-23T14:46:18.156Z,34.60
2018-08-23T14:49:02.272Z,34.60
2018-08-23T14:51:45.945Z,35.10
2018-08-23T14:54:35.062Z,34.70
2018-08-23T14:57:24.143Z,35.20
2018-08-23T15:00:07.804Z,35.00
2018-08-23T15:02:51.426Z,35.30
2018-08-23T15:05:35.165Z,35.30
2018-08-23T15:08:18.911Z,35.30
2018-08-23T15:11:02.541Z,35.20
2018-08-23T15:13:46.214Z,35.40
2018-08-23T15:16:29.848Z,35.30
2018-08-23T15:21:57.082Z,35.20
2018-08-23T15:24:40.709Z,35.30
2018-08-23T15:27:24.417Z,35.10
2018-08-23T15:30:07.983Z,35.10
2018-08-23T15:32:51.643Z,35.70
2018-08-23T15:35:35.501Z,35.60
2018-08-23T15:38:19.166Z,35.60
2018-08-23T15:41:02.916Z,35.50
2018-08-23T15:43:46.518Z,33.10
2018-08-23T15:49:19.044Z,36.20
2018-08-23T15:52:02.626Z,36.60
2018-08-23T15:57:32.366Z,36.50
2018-08-23T16:00:16.986Z,36.50
2018-08-23T16:03:02.322Z,36.80
2018-08-23T16:05:49.392Z,37.20
2018-08-23T16:08:38.991Z,37.00
2018-08-23T16:14:13.188Z,37.50
2018-08-23T16:17:07.231Z,37.30
2018-08-23T16:20:02.338Z,37.30
2018-08-23T16:22:55.597Z,37.70
2018-08-23T16:25:43.443Z,37.80
2018-08-23T16:28:33.721Z,37.60
2018-08-23T16:31:20.318Z,37.50
2018-08-23T16:34:03.930Z,38.30
2018-08-23T16:36:47.553Z,38.70
2018-08-23T16:39:31.174Z,38.70
2018-08-23T16:45:04.621Z,38.90
2018-08-23T16:47:48.250Z,39.10
2018-08-23T16:50:31.866Z,39.30
2018-08-23T16:58:44.017Z,39.50
2018-08-23T17:01:29.806Z,39.70
2018-08-23T17:06:56.778Z,40.10
2018-08-23T17:09:40.428Z,39.90
2018-08-23T17:12:24.038Z,40.30
2018-08-23T17:17:56.746Z,40.50
2018-08-23T17:20:41.209Z,40.90
2018-08-23T17:23:24.839Z,40.90
2018-08-23T17:26:08.510Z,41.30
2018-08-23T17:28:52.152Z,41.70
2018-08-23T17:31:35.783Z,41.70
2018-08-23T17:34:19.379Z,41.70
2018-08-23T17:37:03.009Z,41.90
2018-08-23T17:39:46.652Z,42.20
2018-08-23T17:42:35.661Z,42.30
2018-08-23T17:45:19.305Z,42.30
2018-08-23T17:48:02.929Z,42.60
2018-08-23T17:50:46.578Z,43.10
2018-08-23T17:53:30.236Z,42.80
2018-08-23T17:56:13.882Z,43.00
2018-08-23T17:58:57.511Z,43.30
2018-08-23T18:01:41.177Z,43.40
2018-08-23T18:04:24.833Z,43.60
2018-08-23T18:07:08.448Z,44.10
2018-08-23T18:09:52.121Z,44.00
2018-08-23T18:12:35.754Z,44.50
2018-08-23T18:15:21.982Z,44.60
2018-08-23T18:20:48.987Z,44.90
2018-08-23T18:23:32.562Z,45.60
2018-08-23T18:26:16.155Z,46.30
2018-08-23T18:29:00.162Z,46.00
2018-08-23T18:31:43.970Z,46.30
2018-08-23T18:34:27.602Z,46.20
2018-08-23T18:39:54.577Z,46.60
2018-08-23T18:42:38.302Z,46.70
2018-08-23T18:45:21.889Z,47.30
2018-08-23T18:48:05.654Z,47.30
2018-08-23T18:50:49.905Z,47.80
2018-08-23T18:53:33.498Z,47.70
2018-08-23T18:56:17.312Z,47.90
2018-08-23T18:59:00.897Z,48.00
2018-08-23T19:01:44.570Z,48.10
2018-08-23T19:04:28.105Z,48.30
2018-08-23T19:07:23.447Z,48.40
2018-08-23T19:10:07.920Z,48.60
2018-08-23T19:12:54.723Z,48.80
2018-08-23T19:15:44.418Z,48.80
2018-08-23T19:18:28.044Z,49.10
2018-08-23T19:21:11.677Z,48.80
2018-08-23T19:24:02.507Z,49.30
2018-08-23T19:26:46.238Z,48.90
2018-08-23T19:29:29.921Z,48.90
2018-08-23T19:32:14.566Z,49.40
2018-08-23T19:34:58.238Z,49.50
2018-08-23T19:37:41.912Z,49.60
2018-08-23T19:40:29.535Z,49.40
2018-08-23T19:43:13.356Z,49.50
2018-08-23T19:46:02.958Z,49.60
2018-08-23T19:48:48.491Z,49.70
2018-08-23T19:51:33.392Z,49.80
2018-08-23T19:54:18.413Z,49.90
2018-08-23T19:57:02.207Z,50.10
2018-08-23T19:59:45.907Z,50.30
2018-08-23T20:02:33.443Z,50.70
2018-08-23T20:05:18.515Z,50.90
2018-08-23T20:08:02.100Z,51.70
2018-08-23T20:10:45.787Z,52.10
2018-08-23T20:13:29.383Z,52.50
2018-08-23T20:18:56.380Z,53.50
2018-08-23T20:21:39.973Z,53.80
2018-08-23T20:27:06.943Z,54.80
2018-08-23T20:29:51.074Z,54.90
2018-08-23T20:32:34.675Z,55.30
2018-08-23T20:35:18.313Z,55.50
2018-08-23T20:38:02.463Z,55.70
2018-08-23T20:43:29.693Z,56.20
2018-08-23T20:46:13.344Z,56.40
2018-08-23T20:48:56.981Z,56.50
2018-08-23T20:51:40.683Z,56.80
2018-08-23T20:54:24.254Z,57.20
2018-08-23T20:57:07.894Z,57.30
2018-08-23T20:59:51.534Z,57.40
2018-08-23T21:02:35.144Z,57.60
2018-08-23T21:05:19.280Z,57.70
2018-08-23T21:08:02.908Z,57.70
2018-08-23T21:13:29.890Z,58.40
2018-08-23T21:16:13.480Z,58.40
2018-08-23T21:18:57.113Z,58.80
2018-08-23T21:21:40.749Z,58.70
2018-08-23T21:24:24.386Z,58.90
2018-08-23T21:27:08.062Z,58.90
2018-08-23T21:35:18.362Z,59.50
2018-08-23T21:40:45.339Z,59.80
2018-08-23T21:43:28.937Z,60.10
2018-08-23T21:46:12.561Z,60.40
2018-08-23T21:48:56.241Z,60.50
2018-08-23T21:51:39.920Z,60.70
2018-08-23T21:54:23.507Z,60.80
2018-08-23T21:57:07.117Z,61.00
2018-08-23T21:59:50.749Z,61.00
2018-08-23T22:02:34.401Z,61.10
2018-08-23T22:05:17.977Z,61.10
2018-08-23T22:08:01.637Z,61.80
2018-08-23T22:10:45.245Z,61.90
2018-08-23T22:13:28.953Z,61.60
2018-08-23T22:16:12.627Z,61.80
2018-08-23T22:18:56.241Z,61.80
2018-08-23T22:21:39.920Z,61.90
2018-08-23T22:24:23.528Z,61.90
2018-08-23T22:27:07.334Z,62.00
2018-08-23T22:29:50.908Z,62.00
2018-08-23T22:32:34.490Z,62.00
2018-08-23T22:35:19.045Z,62.20
2018-08-23T22:38:02.682Z,62.30
2018-08-23T22:40:46.331Z,62.30
2018-08-23T22:43:29.974Z,62.40
2018-08-23T22:46:13.608Z,62.80
2018-08-23T22:48:57.281Z,63.00
2018-08-23T22:51:40.959Z,63.20
2018-08-23T22:54:24.603Z,63.40
2018-08-23T22:57:08.251Z,63.80
2018-08-23T22:59:51.968Z,63.90
2018-08-23T23:02:37.549Z,64.00
2018-08-23T23:05:21.237Z,64.10
2018-08-23T23:08:07.816Z,63.60
2018-08-23T23:10:51.457Z,64.20
2018-08-23T23:13:35.098Z,64.20
2018-08-23T23:16:18.817Z,64.30
2018-08-23T23:19:02.513Z,64.50
2018-08-23T23:21:46.140Z,64.50
2018-08-23T23:24:35.103Z,64.70
2018-08-23T23:27:18.749Z,64.80
2018-08-23T23:30:02.364Z,65.50
2018-08-23T23:32:45.991Z,65.00
2018-08-23T23:35:29.605Z,65.30
2018-08-23T23:38:13.269Z,65.40
2018-08-23T23:40:56.903Z,65.30
2018-08-23T23:43:40.553Z,65.40
2018-08-23T23:46:24.197Z,65.50
2018-08-23T23:49:07.789Z,65.70
2018-08-23T23:51:51.430Z,66.00
2018-08-23T23:54:35.101Z,66.20
2018-08-23T23:57:18.740Z,66.30
